Time;durP1;ratioP1;P1;durP2;ratioP2;P2;SDS_P1;SDS_P2;PMS_P1;PMS_P2;Temp;Humidity;BMP_temperature;BMP_pressure;BME280_temperature;BME280_humidity;BME280_pressure;Samples;Min_cycle;Max_cycle;Signal;HPM_P1;HPM_P2
2020/12/20 00:01:38;;;;;;;3.38;3.17;;;2.90;99.90;;;;;;5080820;28;20222;-76
2020/12/20 00:04:05;;;;;;;3.83;3.53;;;2.90;99.90;;;;;;5082544;28;20205;-76
2020/12/20 00:06:38;;;;;;;4.57;3.80;;;2.80;99.90;;;;;;5075846;28;20237;-76
2020/12/20 00:09:09;;;;;;;4.03;3.72;;;2.80;99.90;;;;;;5067702;28;20726;-76
2020/12/20 00:11:40;;;;;;;3.65;3.45;;;2.80;99.90;;;;;;5078042;28;20213;-76
2020/12/20 00:16:48;;;;;;;3.80;3.60;;;2.80;99.90;;;;;;5077487;28;20209;-75
2020/12/20 00:19:14;;;;;;;4.80;4.50;;;2.80;99.90;;;;;;5082384;28;20213;-75
2020/12/20 00:21:41;;;;;;;4.47;4.18;;;2.80;99.90;;;;;;5087715;28;20209;-76
2020/12/20 00:24:11;;;;;;;3.97;3.67;;;2.80;99.90;;;;;;5095865;28;20189;-76
2020/12/20 00:26:37;;;;;;;4.07;3.88;;;2.80;99.90;;;;;;5086765;28;20209;-76
2020/12/20 00:29:04;;;;;;;4.30;4.00;;;2.80;99.90;;;;;;5088730;28;20751;-77
2020/12/20 00:31:31;;;;;;;4.30;3.88;;;2.80;99.90;;;;;;5085228;28;20802;-76
2020/12/20 00:33:57;;;;;;;3.90;3.70;;;2.80;99.90;;;;;;5093061;28;20594;-76
2020/12/20 00:36:24;;;;;;;4.03;3.72;;;2.70;99.90;;;;;;5087270;28;20232;-76
2020/12/20 00:38:50;;;;;;;3.97;3.78;;;2.70;99.90;;;;;;5092795;28;20208;-78
2020/12/20 00:41:18;;;;;;;4.43;4.13;;;2.70;99.90;;;;;;5067190;28;20198;-76
2020/12/20 00:43:45;;;;;;;3.67;3.38;;;2.70;99.90;;;;;;5065895;28;20656;-76
2020/12/20 00:46:11;;;;;;;3.85;3.55;;;2.60;99.90;;;;;;5077968;28;20199;-76
2020/12/20 00:48:38;;;;;;;3.60;3.40;;;2.60;99.90;;;;;;5072065;28;20602;-75
2020/12/20 00:51:05;;;;;;;4.10;3.70;;;2.70;99.90;;;;;;5075640;28;20202;-76
2020/12/20 00:53:32;;;;;;;4.00;3.70;;;2.70;99.90;;;;;;5065920;28;20305;-76
2020/12/20 00:55:59;;;;;;;4.00;3.80;;;2.70;99.90;;;;;;5062600;28;20260;-75
2020/12/20 00:58:26;;;;;;;3.90;3.70;;;2.70;99.90;;;;;;5071538;28;20218;-75
2020/12/20 01:00:53;;;;;;;3.65;3.45;;;2.70;99.90;;;;;;5062822;28;20203;-75
2020/12/20 01:03:19;;;;;;;4.07;3.88;;;2.70;99.90;;;;;;5076818;28;20218;-76
2020/12/20 01:05:46;;;;;;;4.47;4.18;;;2.70;99.90;;;;;;5065310;28;20251;-76
2020/12/20 01:08:13;;;;;;;3.88;3.63;;;2.60;99.90;;;;;;5061556;28;20271;-76
2020/12/20 01:10:39;;;;;;;4.20;3.90;;;2.60;99.90;;;;;;5061963;28;20199;-76
2020/12/20 01:13:06;;;;;;;3.67;3.47;;;2.60;99.90;;;;;;5071747;28;20275;-75
2020/12/20 01:15:33;;;;;;;4.22;3.92;;;2.50;99.90;;;;;;5073924;28;20214;-76
2020/12/20 01:18:00;;;;;;;4.32;4.13;;;2.50;99.90;;;;;;5072305;28;20218;-76
2020/12/20 01:20:27;;;;;;;3.75;3.55;;;2.50;99.90;;;;;;5083533;28;20201;-76
2020/12/20 01:22:53;;;;;;;4.22;3.92;;;2.50;99.90;;;;;;5072852;28;20241;-75
2020/12/20 01:25:20;;;;;;;3.50;3.28;;;2.50;99.90;;;;;;5076303;28;20194;-76
2020/12/20 01:27:46;;;;;;;4.00;3.70;;;2.50;99.90;;;;;;5062841;28;20681;-76
2020/12/20 01:30:13;;;;;;;3.85;3.55;;;2.50;99.90;;;;;;5057505;28;20680;-76
2020/12/20 01:32:40;;;;;;;4.47;4.18;;;2.40;99.90;;;;;;5062283;28;20233;-75
2020/12/20 01:35:08;;;;;;;4.07;3.78;;;2.40;99.90;;;;;;5054869;28;20230;-75
2020/12/20 01:37:35;;;;;;;4.07;3.78;;;2.50;99.90;;;;;;5058713;28;20223;-75
2020/12/20 01:40:02;;;;;;;4.25;3.95;;;2.50;99.90;;;;;;5065076;28;20202;-75
2020/12/20 01:42:28;;;;;;;4.05;3.85;;;2.50;99.90;;;;;;5065907;28;20266;-75
2020/12/20 01:44:55;;;;;;;4.00;3.80;;;2.50;99.90;;;;;;5072014;28;20198;-75
2020/12/20 01:47:22;;;;;;;3.72;3.45;;;2.50;99.90;;;;;;5080948;28;20226;-75
2020/12/20 01:49:49;;;;;;;3.83;3.63;;;2.50;99.90;;;;;;5086285;28;20205;-76
2020/12/20 01:52:16;;;;;;;4.10;3.90;;;2.50;99.90;;;;;;5079868;28;20218;-76
2020/12/20 01:54:49;;;;;;;3.85;3.55;;;2.50;99.90;;;;;;5086009;28;20225;-75
2020/12/20 01:57:16;;;;;;;3.75;3.50;;;2.50;99.90;;;;;;5078902;28;20229;-76
2020/12/20 01:59:43;;;;;;;4.13;3.83;;;2.50;99.90;;;;;;5074925;28;20197;-75
2020/12/20 02:02:09;;;;;;;4.10;3.80;;;2.40;99.90;;;;;;5078824;28;20206;-75
2020/12/20 02:04:36;;;;;;;3.78;3.58;;;2.40;99.90;;;;;;5065421;28;20190;-75
2020/12/20 02:07:04;;;;;;;4.45;4.15;;;2.40;99.90;;;;;;5059816;28;20226;-76
2020/12/20 02:09:30;;;;;;;4.28;3.97;;;2.40;99.90;;;;;;5071314;28;20206;-75
2020/12/20 02:12:02;;;;;;;4.43;4.13;;;2.40;99.90;;;;;;5075620;28;20213;-76
2020/12/20 02:14:29;;;;;;;3.55;3.35;;;2.30;99.90;;;;;;5071954;28;20582;-75
2020/12/20 02:16:55;;;;;;;3.30;3.10;;;2.40;99.90;;;;;;5066642;28;20214;-75
2020/12/20 02:19:22;;;;;;;3.58;3.38;;;2.40;99.90;;;;;;5067179;28;20209;-75
2020/12/20 02:21:50;;;;;;;3.95;3.75;;;2.40;99.90;;;;;;5067273;28;20224;-75
2020/12/20 02:24:17;;;;;;;4.07;3.78;;;2.40;99.90;;;;;;5072914;28;20198;-76
2020/12/20 02:26:43;;;;;;;4.25;4.03;;;2.40;99.90;;;;;;5069260;28;20214;-75
2020/12/20 02:29:10;;;;;;;3.70;3.50;;;2.40;99.90;;;;;;5076924;28;20229;-76
2020/12/20 02:31:37;;;;;;;4.00;3.70;;;2.40;99.90;;;;;;5067561;28;20193;-76
2020/12/20 02:34:04;;;;;;;4.13;3.88;;;2.40;99.90;;;;;;5083321;28;20206;-75
2020/12/20 02:36:31;;;;;;;4.13;3.83;;;2.40;99.90;;;;;;5076452;28;20249;-76
2020/12/20 02:38:59;;;;;;;4.07;3.78;;;2.40;99.90;;;;;;5093907;28;20273;-75
2020/12/20 02:41:25;;;;;;;4.45;4.07;;;2.40;99.90;;;;;;5094768;28;20185;-76
2020/12/20 02:43:52;;;;;;;3.75;3.45;;;2.40;99.90;;;;;;5085418;28;20212;-76
2020/12/20 02:46:18;;;;;;;4.38;3.97;;;2.40;99.90;;;;;;5087546;28;20186;-76
2020/12/20 02:48:46;;;;;;;4.55;4.25;;;2.30;99.90;;;;;;5089735;28;20244;-76
2020/12/20 02:51:12;;;;;;;3.80;3.50;;;2.40;99.90;;;;;;5087405;28;20201;-75
2020/12/20 02:53:39;;;;;;;4.55;4.15;;;2.30;99.90;;;;;;5087629;28;20209;-76
2020/12/20 02:56:06;;;;;;;4.03;3.80;;;2.30;99.90;;;;;;5083424;28;20214;-76
2020/12/20 02:58:33;;;;;;;3.95;3.70;;;2.20;99.90;;;;;;5081147;28;20229;-76
2020/12/20 03:01:00;;;;;;;4.47;4.18;;;2.20;99.90;;;;;;5090420;28;20651;-75
2020/12/20 03:03:26;;;;;;;4.55;4.25;;;2.20;99.90;;;;;;5089002;28;20274;-76
2020/12/20 03:05:53;;;;;;;4.07;3.78;;;2.20;99.90;;;;;;5089638;28;20198;-76
2020/12/20 03:08:19;;;;;;;4.03;3.83;;;2.20;99.90;;;;;;5088634;28;20229;-75
2020/12/20 03:10:46;;;;;;;3.55;3.35;;;2.20;99.90;;;;;;5085006;28;20223;-76
2020/12/20 03:13:14;;;;;;;3.83;3.63;;;2.20;99.90;;;;;;5093651;28;20229;-75
2020/12/20 03:15:43;;;;;;;4.38;4.05;;;2.20;99.90;;;;;;5097424;28;20218;-75
2020/12/20 03:18:09;;;;;;;3.97;3.67;;;2.30;99.90;;;;;;5084010;28;20217;-76
2020/12/20 03:20:36;;;;;;;4.13;3.83;;;2.30;99.90;;;;;;5085960;28;20656;-76
2020/12/20 03:23:04;;;;;;;3.75;3.55;;;2.30;99.90;;;;;;5085836;28;20217;-75
2020/12/20 03:25:31;;;;;;;4.50;4.20;;;2.30;99.90;;;;;;5104376;28;20673;-76
2020/12/20 03:27:57;;;;;;;4.10;3.90;;;2.30;99.90;;;;;;5092701;28;20237;-76
2020/12/20 03:30:26;;;;;;;4.32;4.03;;;2.30;99.90;;;;;;5085840;28;20202;-76
2020/12/20 03:32:53;;;;;;;4.43;4.03;;;2.20;99.90;;;;;;5088361;28;20221;-78
2020/12/20 03:35:20;;;;;;;4.47;4.18;;;2.20;99.90;;;;;;5111575;28;20229;-76
2020/12/20 03:37:50;;;;;;;3.75;3.55;;;2.30;99.90;;;;;;5080120;28;20719;-75
2020/12/20 03:40:17;;;;;;;4.35;3.95;;;2.30;99.90;;;;;;5075776;28;20657;-76
2020/12/20 03:42:46;;;;;;;4.03;3.83;;;2.30;99.90;;;;;;5075771;28;20275;-75
2020/12/20 03:45:13;;;;;;;3.58;3.30;;;2.20;99.90;;;;;;5077434;28;20590;-75
2020/12/20 03:47:40;;;;;;;3.70;3.50;;;2.20;99.90;;;;;;5081249;28;20229;-76
2020/12/20 03:50:07;;;;;;;4.15;3.83;;;2.30;99.90;;;;;;5081139;28;20198;-75
2020/12/20 03:52:34;;;;;;;4.13;3.83;;;2.30;99.90;;;;;;5079772;28;20208;-76
2020/12/20 03:55:00;;;;;;;4.50;4.20;;;2.30;99.90;;;;;;5084428;28;20679;-76
2020/12/20 03:57:27;;;;;;;5.25;4.85;;;2.30;99.90;;;;;;5076187;28;20222;-76
2020/12/20 03:59:54;;;;;;;4.55;4.20;;;2.30;99.90;;;;;;5088505;28;20193;-74
2020/12/20 04:02:20;;;;;;;5.05;4.72;;;2.20;99.90;;;;;;5082146;28;20270;-76
2020/12/20 04:04:48;;;;;;;4.85;4.43;;;2.10;99.90;;;;;;5098249;28;20204;-76
2020/12/20 04:07:14;;;;;;;4.47;4.07;;;2.10;99.90;;;;;;5085511;28;20229;-75
2020/12/20 04:09:42;;;;;;;4.65;4.35;;;2.00;99.90;;;;;;5091090;28;20657;-76
2020/12/20 04:12:09;;;;;;;4.80;4.50;;;2.00;99.90;;;;;;5093225;28;20297;-75
2020/12/20 04:14:35;;;;;;;4.70;4.40;;;2.00;99.90;;;;;;5096541;28;20219;-76
2020/12/20 04:17:02;;;;;;;4.75;4.38;;;2.00;99.90;;;;;;5096267;28;20216;-76
2020/12/20 04:19:29;;;;;;;3.97;3.70;;;2.10;99.90;;;;;;5095760;28;20206;-75
2020/12/20 04:21:56;;;;;;;4.38;4.07;;;2.10;99.90;;;;;;5092544;28;20200;-76
2020/12/20 04:24:23;;;;;;;4.20;3.90;;;2.10;99.90;;;;;;5095201;28;20303;-75
2020/12/20 04:26:49;;;;;;;4.53;4.22;;;2.20;99.90;;;;;;5091996;28;20566;-75
2020/12/20 04:29:16;;;;;;;4.15;3.85;;;2.20;99.90;;;;;;5091267;28;20219;-76
2020/12/20 04:31:43;;;;;;;4.53;4.22;;;2.20;99.90;;;;;;5087386;28;20576;-76
2020/12/20 04:34:09;;;;;;;4.53;4.22;;;2.20;99.90;;;;;;5095697;28;20659;-76
2020/12/20 04:36:36;;;;;;;4.68;4.38;;;2.20;99.90;;;;;;5086919;28;20218;-75
2020/12/20 04:39:04;;;;;;;4.03;3.72;;;2.20;99.90;;;;;;5088882;28;20322;-76
2020/12/20 04:41:31;;;;;;;4.75;4.40;;;2.20;99.90;;;;;;5083321;28;20205;-75
2020/12/20 04:43:58;;;;;;;4.95;4.65;;;2.20;99.90;;;;;;5081635;28;20562;-76
2020/12/20 04:46:26;;;;;;;4.93;4.63;;;2.20;99.90;;;;;;5088345;28;20249;-75
2020/12/20 04:48:54;;;;;;;4.40;4.10;;;2.20;99.90;;;;;;5090081;28;20225;-75
2020/12/20 04:51:21;;;;;;;4.65;4.25;;;2.20;99.90;;;;;;5089544;28;20198;-76
2020/12/20 04:53:50;;;;;;;5.03;4.72;;;2.20;99.90;;;;;;5078108;28;20225;-76
2020/12/20 04:56:19;;;;;;;4.55;4.25;;;2.20;99.90;;;;;;5081749;28;20232;-76
2020/12/20 04:58:46;;;;;;;5.63;5.18;;;2.20;99.90;;;;;;5067102;28;20217;-75
2020/12/20 05:01:12;;;;;;;5.40;5.00;;;2.20;99.90;;;;;;5060697;28;20205;-75
2020/12/20 05:03:39;;;;;;;5.13;4.82;;;2.20;99.90;;;;;;5061825;28;20234;-76
2020/12/20 05:06:06;;;;;;;5.28;4.78;;;2.20;99.90;;;;;;5058381;28;20216;-76
2020/12/20 05:08:33;;;;;;;4.85;4.45;;;2.20;99.90;;;;;;5066077;28;20784;-75
2020/12/20 05:10:59;;;;;;;4.57;4.28;;;2.20;99.90;;;;;;5059313;28;20204;-76
2020/12/20 05:13:39;;;;;;;4.88;4.57;;;2.30;99.90;;;;;;5070152;28;20226;-76
2020/12/20 05:16:06;;;;;;;4.53;4.22;;;2.30;99.90;;;;;;5062806;28;20220;-76
2020/12/20 05:18:32;;;;;;;4.97;4.57;;;2.20;99.90;;;;;;5073244;28;20225;-76
2020/12/20 05:20:59;;;;;;;4.65;4.35;;;2.30;99.90;;;;;;5084549;28;20195;-75
2020/12/20 05:23:30;;;;;;;4.80;4.50;;;2.30;99.90;;;;;;5082752;28;20221;-76
2020/12/20 05:26:06;;;;;;;4.85;4.45;;;2.30;99.90;;;;;;5087260;28;20198;-76
2020/12/20 05:28:32;;;;;;;4.60;4.30;;;2.30;99.90;;;;;;5076345;28;20279;-76
2020/12/20 05:31:08;;;;;;;4.80;4.43;;;2.30;99.90;;;;;;5079867;28;20694;-75
2020/12/20 05:33:35;;;;;;;4.43;4.13;;;2.40;99.90;;;;;;5083834;28;20394;-77
2020/12/20 05:36:04;;;;;;;4.32;4.03;;;2.40;99.90;;;;;;5085902;28;20217;-76
2020/12/20 05:38:31;;;;;;;4.25;3.95;;;2.40;99.90;;;;;;5082732;28;20226;-76
2020/12/20 05:40:58;;;;;;;3.75;3.55;;;2.50;99.90;;;;;;5084402;28;20488;-76
2020/12/20 05:43:27;;;;;;;3.92;3.72;;;2.50;99.90;;;;;;5075886;28;21971;-77
2020/12/20 05:45:54;;;;;;;4.03;3.83;;;2.50;99.90;;;;;;5085239;28;20193;-75
2020/12/20 05:48:24;;;;;;;4.32;4.07;;;2.60;99.90;;;;;;5083843;28;20225;-76
2020/12/20 05:50:52;;;;;;;4.15;3.85;;;2.50;99.90;;;;;;5076781;28;20206;-76
2020/12/20 05:53:24;;;;;;;5.22;4.82;;;2.50;99.90;;;;;;5079796;28;20772;-76
2020/12/20 05:55:51;;;;;;;4.25;3.95;;;2.50;99.90;;;;;;5080094;28;20225;-75
2020/12/20 05:58:17;;;;;;;4.90;4.50;;;2.50;99.90;;;;;;5078642;28;20222;-76
2020/12/20 06:00:46;;;;;;;4.63;4.22;;;2.50;99.90;;;;;;5082671;28;20259;-76
2020/12/20 06:03:13;;;;;;;5.35;4.95;;;2.50;99.90;;;;;;5085169;28;20214;-75
2020/12/20 06:05:42;;;;;;;5.13;4.72;;;2.50;99.90;;;;;;5069919;28;20198;-77
2020/12/20 06:08:12;;;;;;;6.03;5.53;;;2.40;99.90;;;;;;5081010;28;20218;-75
2020/12/20 06:10:42;;;;;;;5.88;5.40;;;2.40;99.90;;;;;;5069328;28;20198;-75
2020/12/20 06:13:11;;;;;;;8.52;7.57;;;2.40;99.90;;;;;;5070868;28;20263;-76
2020/12/20 06:15:40;;;;;;;8.63;7.47;;;2.40;99.90;;;;;;5072282;28;20696;-76
2020/12/20 06:18:12;;;;;;;6.60;6.00;;;2.40;99.90;;;;;;5074273;28;20592;-76
2020/12/20 06:20:54;;;;;;;7.57;6.88;;;2.40;99.90;;;;;;5091533;28;20204;-75
2020/12/20 06:23:23;;;;;;;6.45;5.85;;;2.40;99.90;;;;;;5089520;28;20213;-76
2020/12/20 06:25:51;;;;;;;6.78;6.07;;;2.30;99.90;;;;;;5098351;28;20198;-74
2020/12/20 06:28:21;;;;;;;6.05;5.45;;;2.30;99.90;;;;;;5091820;28;20217;-76
2020/12/20 06:30:48;;;;;;;5.50;5.03;;;2.20;99.90;;;;;;5105473;28;20194;-78
2020/12/20 06:33:31;;;;;;;6.25;5.68;;;2.10;99.90;;;;;;5097449;28;20590;-76
2020/12/20 06:36:03;;;;;;;6.13;5.55;;;2.10;99.90;;;;;;5090963;28;20210;-76
2020/12/20 06:38:29;;;;;;;5.63;5.15;;;2.10;99.90;;;;;;5084649;28;20226;-76
2020/12/20 06:40:56;;;;;;;5.75;5.25;;;2.10;99.90;;;;;;5085963;28;20231;-76
2020/12/20 06:43:32;;;;;;;5.40;5.00;;;2.20;99.90;;;;;;5089218;28;20214;-77
2020/12/20 06:45:59;;;;;;;5.30;4.90;;;2.20;99.90;;;;;;5084620;28;20205;-77
2020/12/20 06:48:33;;;;;;;5.38;4.97;;;2.20;99.90;;;;;;5091826;28;20221;-76
2020/12/20 06:51:02;;;;;;;6.57;6.00;;;2.20;99.90;;;;;;5098957;28;20196;-76
2020/12/20 06:53:51;;;;;;;5.85;5.35;;;2.30;99.90;;;;;;5083116;28;20228;-76
2020/12/20 06:56:21;;;;;;;6.05;5.55;;;2.30;99.90;;;;;;5095454;28;20222;-75
2020/12/20 06:58:48;;;;;;;5.35;4.82;;;2.40;99.90;;;;;;5094498;28;20221;-78
2020/12/20 07:01:34;;;;;;;5.15;4.85;;;2.50;99.90;;;;;;5096739;28;20201;-75
2020/12/20 07:04:01;;;;;;;5.45;5.05;;;2.50;99.90;;;;;;5095899;28;20209;-76
2020/12/20 07:06:28;;;;;;;4.68;4.38;;;2.50;99.90;;;;;;5084602;28;20202;-75
2020/12/20 07:08:57;;;;;;;5.97;5.47;;;2.50;99.90;;;;;;5097168;28;20221;-75
2020/12/20 07:11:25;;;;;;;5.50;5.10;;;2.50;99.90;;;;;;5085766;28;20279;-76
2020/12/20 07:13:54;;;;;;;6.15;5.65;;;2.40;99.90;;;;;;5088994;28;20217;-76
2020/12/20 07:16:23;;;;;;;5.88;5.38;;;2.40;99.90;;;;;;5092549;28;20245;-76
2020/12/20 07:18:54;;;;;;;5.43;5.03;;;2.50;99.90;;;;;;5087538;28;20240;-76
2020/12/20 07:21:54;;;;;;;4.78;4.38;;;2.50;99.90;;;;;;5085017;28;20198;-76
2020/12/20 07:24:22;;;;;;;5.00;4.65;;;2.50;99.90;;;;;;5084869;28;20213;-75
2020/12/20 07:26:50;;;;;;;5.50;5.10;;;2.60;99.90;;;;;;5093513;28;20194;-75
2020/12/20 07:29:17;;;;;;;5.20;4.80;;;2.60;99.90;;;;;;5083778;28;20288;-75
2020/12/20 07:31:44;;;;;;;5.22;4.82;;;2.60;99.90;;;;;;5087087;28;20196;-75
2020/12/20 07:34:11;;;;;;;5.47;5.10;;;2.60;99.90;;;;;;5089188;28;20217;-74
2020/12/20 07:36:38;;;;;;;6.90;6.30;;;2.60;99.90;;;;;;5091715;28;22001;-74
2020/12/20 07:39:06;;;;;;;6.53;6.03;;;2.90;99.90;;;;;;5098789;28;20232;-75
2020/12/20 07:41:33;;;;;;;7.57;6.97;;;3.00;99.90;;;;;;5083269;28;20760;-75
2020/12/20 07:44:04;;;;;;;8.00;7.20;;;3.00;99.90;;;;;;5091860;28;20217;-75
2020/12/20 07:46:31;;;;;;;6.55;6.05;;;2.90;99.90;;;;;;5086758;28;20242;-76
2020/12/20 07:49:03;;;;;;;7.20;6.60;;;2.80;99.90;;;;;;5092402;28;20300;-76
2020/12/20 07:51:30;;;;;;;6.93;6.32;;;2.70;99.90;;;;;;5096198;28;20227;-77
2020/12/20 07:53:59;;;;;;;6.32;5.85;;;2.70;99.90;;;;;;5090423;28;20221;-75
2020/12/20 07:56:27;;;;;;;7.10;6.40;;;2.70;99.90;;;;;;5092832;28;20699;-75
2020/12/20 07:58:54;;;;;;;6.45;5.95;;;2.70;99.90;;;;;;5081650;28;20217;-76
2020/12/20 08:01:22;;;;;;;6.18;5.68;;;2.70;99.90;;;;;;5094197;28;20204;-75
2020/12/20 08:03:49;;;;;;;5.53;5.13;;;2.80;99.90;;;;;;5091234;28;20217;-74
2020/12/20 08:06:17;;;;;;;5.53;5.03;;;2.90;99.90;;;;;;5085530;28;20193;-74
2020/12/20 08:08:45;;;;;;;6.00;5.50;;;3.00;99.90;;;;;;5079942;28;20221;-76
2020/12/20 08:11:20;;;;;;;6.43;5.93;;;3.00;99.90;;;;;;5089978;28;20201;-75
2020/12/20 08:13:50;;;;;;;7.97;7.20;;;3.00;99.90;;;;;;5084982;28;20209;-76
2020/12/20 08:16:25;;;;;;;6.25;5.75;;;3.10;99.90;;;;;;5080729;28;20263;-74
2020/12/20 08:18:56;;;;;;;7.07;6.50;;;3.10;99.90;;;;;;5083550;28;20272;-75
2020/12/20 08:21:33;;;;;;;6.32;5.82;;;3.20;99.90;;;;;;5085401;28;20201;-76
2020/12/20 08:24:00;;;;;;;6.60;6.10;;;3.30;99.90;;;;;;5085026;28;20216;-74
2020/12/20 08:26:35;;;;;;;6.57;6.03;;;3.40;99.90;;;;;;5086810;28;20311;-75
2020/12/20 08:29:02;;;;;;;5.90;5.50;;;3.50;99.90;;;;;;5081706;28;20229;-75
2020/12/20 08:31:30;;;;;;;5.75;5.25;;;3.50;99.90;;;;;;5089493;28;20205;-76
2020/12/20 08:33:57;;;;;;;6.47;5.95;;;3.50;99.90;;;;;;5084471;28;20217;-76
2020/12/20 08:36:23;;;;;;;5.80;5.40;;;3.40;99.90;;;;;;5076093;28;20214;-76
2020/12/20 08:38:50;;;;;;;6.03;5.57;;;3.40;99.90;;;;;;5076418;28;20226;-76
2020/12/20 08:41:22;;;;;;;5.45;5.05;;;3.40;99.90;;;;;;5074305;28;20207;-76
2020/12/20 08:44:01;;;;;;;6.75;6.15;;;3.40;99.90;;;;;;5086740;28;20713;-77
2020/12/20 08:46:30;;;;;;;6.32;5.82;;;3.40;99.90;;;;;;5102683;28;20201;-77
2020/12/20 08:49:11;;;;;;;5.97;5.55;;;3.40;99.90;;;;;;5099084;28;20220;-77
2020/12/20 08:51:38;;;;;;;5.88;5.47;;;3.40;99.90;;;;;;5091076;28;20204;-76
2020/12/20 08:54:04;;;;;;;6.53;5.93;;;3.30;99.90;;;;;;5093492;28;20706;-76
2020/12/20 08:56:31;;;;;;;5.38;4.97;;;3.30;99.90;;;;;;5097084;28;20421;-76
2020/12/20 08:58:59;;;;;;;5.55;5.15;;;3.30;99.90;;;;;;5096156;28;20220;-76
2020/12/20 09:01:27;;;;;;;5.78;5.28;;;3.30;99.90;;;;;;5096418;28;20197;-77
2020/12/20 09:03:54;;;;;;;6.65;5.68;;;3.30;99.90;;;;;;5089301;28;20213;-76
2020/12/20 09:06:21;;;;;;;6.00;5.60;;;3.30;99.90;;;;;;5098841;28;20201;-76
2020/12/20 09:08:47;;;;;;;6.63;6.00;;;3.40;99.90;;;;;;5097029;28;20236;-76
2020/12/20 09:11:27;;;;;;;5.50;5.05;;;3.40;99.90;;;;;;5096871;28;20201;-76
2020/12/20 09:13:54;;;;;;;7.15;6.63;;;3.40;99.90;;;;;;5091056;28;20225;-76
2020/12/20 09:16:21;;;;;;;6.53;5.90;;;3.40;99.90;;;;;;5088139;28;20244;-76
2020/12/20 09:18:48;;;;;;;7.13;6.53;;;3.40;99.90;;;;;;5095019;28;20772;-76
2020/12/20 09:21:26;;;;;;;6.45;5.95;;;3.40;99.90;;;;;;5096966;28;20251;-76
2020/12/20 09:23:58;;;;;;;6.45;5.85;;;3.30;99.90;;;;;;5095924;28;20278;-77
2020/12/20 09:26:25;;;;;;;6.70;6.10;;;3.30;99.90;;;;;;5095377;28;20209;-77
2020/12/20 09:28:51;;;;;;;6.55;6.05;;;3.40;99.90;;;;;;5099685;28;20228;-76
2020/12/20 09:31:20;;;;;;;7.30;6.60;;;3.40;99.90;;;;;;5111434;28;20215;-78
2020/12/20 09:33:49;;;;;;;7.45;6.72;;;3.50;99.90;;;;;;5102577;28;20679;-77
2020/12/20 09:36:23;;;;;;;7.20;6.60;;;3.60;99.90;;;;;;5097226;28;20217;-78
2020/12/20 09:38:51;;;;;;;6.03;5.53;;;3.70;99.90;;;;;;5106403;28;20228;-77
2020/12/20 09:41:20;;;;;;;5.95;5.45;;;3.80;99.90;;;;;;5099568;28;20561;-77
2020/12/20 09:43:48;;;;;;;7.93;6.97;;;3.90;99.90;;;;;;5096632;28;20214;-76
2020/12/20 09:46:20;;;;;;;7.20;6.45;;;3.90;99.90;;;;;;5097411;28;20201;-76
2020/12/20 09:48:48;;;;;;;6.68;6.15;;;3.90;99.90;;;;;;5100361;28;20225;-77
2020/12/20 09:51:15;;;;;;;6.82;6.22;;;4.00;99.90;;;;;;5090381;28;20208;-76
2020/12/20 09:53:41;;;;;;;6.97;6.47;;;4.00;99.90;;;;;;5101779;28;20221;-76
2020/12/20 09:56:08;;;;;;;6.72;6.20;;;4.00;99.90;;;;;;5098554;28;20240;-76
2020/12/20 09:58:35;;;;;;;7.50;6.68;;;4.10;99.90;;;;;;5092606;28;20229;-76
2020/12/20 10:01:02;;;;;;;7.95;7.25;;;4.10;99.90;;;;;;5096786;28;20713;-75
2020/12/20 10:03:29;;;;;;;7.75;7.05;;;4.20;99.90;;;;;;5091097;28;20221;-75
2020/12/20 10:06:00;;;;;;;7.55;6.80;;;4.20;99.90;;;;;;5096121;28;20280;-75
2020/12/20 10:08:27;;;;;;;7.55;6.95;;;4.20;99.90;;;;;;5095768;28;20564;-75
2020/12/20 10:10:55;;;;;;;6.93;6.32;;;4.30;99.90;;;;;;5099370;28;20576;-75
2020/12/20 10:13:23;;;;;;;7.00;6.30;;;4.30;99.90;;;;;;5102849;28;20220;-75
2020/12/20 10:15:49;;;;;;;6.93;6.22;;;4.30;99.90;;;;;;5091725;28;20217;-76
2020/12/20 10:18:16;;;;;;;7.80;7.10;;;4.40;99.90;;;;;;5095193;27;20223;-76
2020/12/20 10:20:43;;;;;;;9.63;8.73;;;4.40;99.90;;;;;;5104782;28;20279;-76
2020/12/20 10:23:11;;;;;;;8.63;7.82;;;4.30;99.90;;;;;;5098508;28;20216;-75
2020/12/20 10:25:40;;;;;;;7.85;7.05;;;4.20;99.90;;;;;;5093548;28;20212;-76
2020/12/20 10:28:07;;;;;;;8.18;7.47;;;4.20;99.90;;;;;;5098109;28;20308;-75
2020/12/20 10:30:33;;;;;;;7.57;6.80;;;4.10;99.90;;;;;;5114765;28;20193;-75
2020/12/20 10:33:00;;;;;;;7.57;6.97;;;4.20;99.90;;;;;;5096362;28;20685;-76
2020/12/20 10:35:27;;;;;;;6.47;5.88;;;4.20;99.90;;;;;;5089578;28;20196;-75
2020/12/20 10:37:54;;;;;;;7.88;7.28;;;4.30;99.90;;;;;;5096118;28;20228;-74
2020/12/20 10:40:22;;;;;;;7.72;7.03;;;4.40;99.90;;;;;;5095089;28;20198;-75
2020/12/20 10:42:49;;;;;;;7.78;7.13;;;4.40;99.90;;;;;;5089357;28;20378;-75
2020/12/20 10:45:16;;;;;;;7.32;6.72;;;4.50;99.90;;;;;;5082082;28;20202;-75
2020/12/20 10:47:43;;;;;;;8.43;7.63;;;4.50;99.90;;;;;;5097141;28;20221;-75
2020/12/20 10:50:11;;;;;;;7.47;6.78;;;4.50;99.90;;;;;;5063819;28;20222;-75
2020/12/20 10:52:37;;;;;;;7.35;6.75;;;4.60;99.90;;;;;;5079933;28;20197;-75
2020/12/20 10:55:05;;;;;;;8.18;7.47;;;4.70;99.90;;;;;;5058140;28;20211;-75
2020/12/20 10:57:34;;;;;;;8.65;7.85;;;4.70;99.90;;;;;;5059083;28;20261;-75
2020/12/20 11:00:01;;;;;;;7.82;7.13;;;4.80;99.90;;;;;;5061061;28;20645;-75
2020/12/20 11:02:27;;;;;;;9.43;8.52;;;4.80;99.90;;;;;;5063725;28;20248;-75
2020/12/20 11:04:54;;;;;;;9.88;8.95;;;4.80;99.90;;;;;;5066041;28;20287;-74
2020/12/20 11:07:21;;;;;;;9.50;8.60;;;4.80;99.90;;;;;;5062560;28;20722;-75
2020/12/20 11:09:47;;;;;;;8.65;7.85;;;4.90;99.90;;;;;;5063949;28;20214;-75
2020/12/20 11:12:14;;;;;;;10.70;9.70;;;4.90;99.90;;;;;;5061016;28;20211;-75
2020/12/20 11:14:41;;;;;;;10.88;9.77;;;4.90;99.90;;;;;;5063593;28;20218;-74
2020/12/20 11:17:08;;;;;;;9.05;7.82;;;4.90;99.90;;;;;;5063491;28;20215;-74
2020/12/20 11:19:35;;;;;;;8.27;7.47;;;4.80;99.90;;;;;;5079330;28;20742;-75
2020/12/20 11:22:01;;;;;;;8.52;7.72;;;4.80;99.90;;;;;;5097318;28;20193;-75
2020/12/20 11:24:28;;;;;;;7.78;7.00;;;4.80;99.90;;;;;;5095319;28;20232;-75
2020/12/20 11:26:55;;;;;;;7.45;6.75;;;4.80;99.90;;;;;;5093932;28;20201;-74
2020/12/20 11:29:23;;;;;;;7.28;6.57;;;4.80;99.90;;;;;;5080122;28;20217;-75
2020/12/20 11:31:50;;;;;;;7.20;6.60;;;4.90;99.90;;;;;;5093599;28;20197;-75
2020/12/20 11:34:17;;;;;;;7.97;7.28;;;4.90;99.90;;;;;;5095759;28;20209;-75
2020/12/20 11:36:44;;;;;;;8.38;7.57;;;5.10;99.90;;;;;;5093805;28;20229;-75
2020/12/20 11:39:12;;;;;;;7.95;7.28;;;5.10;99.90;;;;;;5094861;28;20589;-75
2020/12/20 11:41:40;;;;;;;7.90;7.18;;;5.10;99.90;;;;;;5091040;28;20582;-75
2020/12/20 11:44:07;;;;;;;7.35;6.72;;;5.10;99.90;;;;;;5093189;28;20216;-74
2020/12/20 11:46:34;;;;;;;7.45;6.75;;;5.20;99.90;;;;;;5097123;28;20240;-74
2020/12/20 11:49:03;;;;;;;7.47;6.78;;;5.20;99.90;;;;;;5088754;28;20228;-75
2020/12/20 11:51:30;;;;;;;8.25;7.45;;;5.30;99.90;;;;;;5090491;28;20206;-76
2020/12/20 11:53:56;;;;;;;8.00;7.30;;;5.30;99.90;;;;;;5092339;28;20213;-75
2020/12/20 11:56:23;;;;;;;7.10;6.40;;;5.30;99.90;;;;;;5093712;28;20213;-75
2020/12/20 11:58:50;;;;;;;7.20;6.60;;;5.30;99.90;;;;;;5090095;28;20217;-75
2020/12/20 12:01:22;;;;;;;6.70;6.10;;;5.30;99.90;;;;;;5093843;28;20698;-75
2020/12/20 12:03:49;;;;;;;6.15;5.65;;;5.30;99.90;;;;;;5091939;28;20264;-76
2020/12/20 12:06:17;;;;;;;7.05;6.38;;;5.40;99.90;;;;;;5092106;28;20318;-75
2020/12/20 12:08:45;;;;;;;7.00;6.40;;;5.40;99.90;;;;;;5092876;28;20703;-75
2020/12/20 12:11:17;;;;;;;7.03;6.43;;;5.40;99.90;;;;;;5099148;28;20603;-75
2020/12/20 12:13:43;;;;;;;7.13;6.50;;;5.40;99.90;;;;;;5091971;28;20479;-75
2020/12/20 12:16:10;;;;;;;6.70;6.07;;;5.40;99.90;;;;;;5100598;28;20232;-75
2020/12/20 12:18:37;;;;;;;6.28;5.78;;;5.50;99.90;;;;;;5090579;28;20303;-75
2020/12/20 12:21:04;;;;;;;6.70;6.10;;;5.50;99.90;;;;;;5095006;28;20253;-74
2020/12/20 12:23:31;;;;;;;6.45;5.95;;;5.50;99.90;;;;;;5092635;28;20225;-75
2020/12/20 12:25:58;;;;;;;7.22;6.63;;;5.50;99.90;;;;;;5093554;28;20660;-75
2020/12/20 12:28:24;;;;;;;7.03;6.40;;;5.50;99.90;;;;;;5109406;28;20226;-76
2020/12/20 12:30:51;;;;;;;7.68;6.97;;;5.60;99.90;;;;;;5090538;28;20292;-75
2020/12/20 12:33:18;;;;;;;7.65;7.03;;;5.60;99.90;;;;;;5094481;28;20277;-75
2020/12/20 12:35:44;;;;;;;7.47;6.80;;;5.60;99.90;;;;;;5090107;28;20221;-74
2020/12/20 12:38:11;;;;;;;8.10;7.40;;;5.60;99.90;;;;;;5094200;28;20216;-75
2020/12/20 12:40:38;;;;;;;8.40;7.70;;;5.60;99.90;;;;;;5097066;28;20204;-76
2020/12/20 12:43:05;;;;;;;7.90;7.20;;;5.60;99.90;;;;;;5098596;28;20197;-74
2020/12/20 12:45:32;;;;;;;7.32;6.70;;;5.70;99.90;;;;;;5098066;28;20196;-75
2020/12/20 12:47:58;;;;;;;7.97;7.35;;;5.70;99.90;;;;;;5092378;28;20233;-76
2020/12/20 12:50:25;;;;;;;7.97;7.18;;;5.80;99.90;;;;;;5090718;28;20217;-76
2020/12/20 12:52:52;;;;;;;8.90;7.95;;;5.80;99.90;;;;;;5093414;28;20193;-75
2020/12/20 12:55:19;;;;;;;8.93;7.95;;;5.80;99.90;;;;;;5089448;28;20313;-76
2020/12/20 12:57:46;;;;;;;8.70;7.90;;;5.80;99.90;;;;;;5099097;28;20309;-76
2020/12/20 13:00:13;;;;;;;9.27;7.88;;;5.70;99.90;;;;;;5086018;28;20294;-75
2020/12/20 13:02:40;;;;;;;8.90;7.93;;;5.60;99.90;;;;;;5092812;28;20605;-76
2020/12/20 13:05:06;;;;;;;8.80;8.10;;;5.70;99.90;;;;;;5100321;28;20213;-74